Time;durP1;ratioP1;P1;durP2;ratioP2;P2;SDS_P1;SDS_P2;PMS_P1;PMS_P2;Temp;Humidity;BMP_temperature;BMP_pressure;BME280_temperature;BME280_humidity;BME280_pressure;Samples;Min_cycle;Max_cycle;Signal;HPM_P1;HPM_P2
2023/04/20 00:01:34;;;;;;;3.92;2.28;;;;;;;;;;5002894;28;20121;-66
2023/04/20 00:04:01;;;;;;;4.45;1.98;;;;;;;;;;5012563;28;20049;-67
2023/04/20 00:06:31;;;;;;;5.50;2.13;;;;;;;;;;5011168;28;20050;-64
2023/04/20 00:08:56;;;;;;;3.88;2.05;;;17.20;77.20;;;;;;5011194;28;20084;-62
2023/04/20 00:11:23;;;;;;;6.18;2.10;;;;;;;;;;5009321;28;20042;-63
2023/04/20 00:13:48;;;;;;;3.25;1.85;;;17.00;77.00;;;;;;5011356;28;20046;-61
2023/04/20 00:16:15;;;;;;;5.57;1.92;;;;;;;;;;5013195;28;20531;-65
2023/04/20 00:18:40;;;;;;;4.53;1.90;;;17.20;74.00;;;;;;5004552;28;20042;-61
2023/04/20 00:21:06;;;;;;;5.82;1.90;;;;;;;;;;5009777;28;20496;-64
2023/04/20 00:23:33;;;;;;;5.65;1.83;;;;;;;;;;5011076;28;20463;-61
2023/04/20 00:25:58;;;;;;;4.40;1.80;;;16.80;77.00;;;;;;5011807;28;20104;-60
2023/04/20 00:28:24;;;;;;;3.92;1.52;;;;;;;;;;5011507;28;20077;-63
2023/04/20 00:30:50;;;;;;;4.80;1.95;;;17.20;77.30;;;;;;5011565;28;20132;-67
2023/04/20 00:33:16;;;;;;;3.85;1.85;;;17.10;77.30;;;;;;5012403;28;20472;-67
2023/04/20 00:35:42;;;;;;;3.58;1.77;;;17.20;74.70;;;;;;5008234;28;20046;-67
2023/04/20 00:38:07;;;;;;;3.83;1.67;;;17.20;75.20;;;;;;5008674;28;20192;-66
2023/04/20 00:40:34;;;;;;;5.25;2.25;;;17.20;77.30;;;;;;5010665;28;20057;-66
2023/04/20 00:43:12;;;;;;;3.75;1.98;;;17.00;74.40;;;;;;5012059;28;20046;-66
2023/04/20 00:45:38;;;;;;;4.80;2.08;;;;;;;;;;5009754;28;20046;-65
2023/04/20 00:48:04;;;;;;;3.28;1.70;;;17.30;77.40;;;;;;5013063;28;20034;-62
2023/04/20 00:50:30;;;;;;;4.22;1.73;;;17.10;77.30;;;;;;5008403;28;20073;-61
2023/04/20 00:52:56;;;;;;;4.10;1.67;;;17.10;77.30;;;;;;5002708;28;20523;-64
2023/04/20 00:55:22;;;;;;;3.80;1.80;;;;;;;;;;5000305;28;20068;-67
2023/04/20 00:57:48;;;;;;;4.88;1.92;;;17.30;73.80;;;;;;5009276;28;20086;-66
2023/04/20 01:00:14;;;;;;;3.70;1.77;;;17.20;77.40;;;;;;5009088;28;20097;-67
2023/04/20 01:02:40;;;;;;;4.95;1.80;;;17.10;77.40;;;;;;5010835;28;20124;-63
2023/04/20 01:05:07;;;;;;;5.47;1.85;;;17.20;75.30;;;;;;5008352;28;20128;-66
2023/04/20 01:07:33;;;;;;;4.70;1.50;;;17.10;74.50;;;;;;5008674;28;20050;-65
2023/04/20 01:09:59;;;;;;;4.63;1.90;;;;;;;;;;5007340;28;20053;-66
2023/04/20 01:12:25;;;;;;;4.30;1.70;;;;;;;;;;5006747;28;20045;-66
2023/04/20 01:14:51;;;;;;;4.13;1.65;;;;;;;;;;5012759;28;20391;-66
2023/04/20 01:17:19;;;;;;;3.88;1.60;;;;;;;;;;5008425;28;20054;-64
2023/04/20 01:19:45;;;;;;;5.22;2.00;;;;;;;;;;5012334;28;20053;-62
2023/04/20 01:22:20;;;;;;;3.90;1.60;;;17.10;74.50;;;;;;5006898;28;20054;-66
2023/04/20 01:24:46;;;;;;;4.38;1.83;;;17.30;74.10;;;;;;5006725;28;20121;-67
2023/04/20 01:27:13;;;;;;;5.10;1.60;;;17.30;77.50;;;;;;5010943;28;20054;-66
2023/04/20 01:29:39;;;;;;;4.05;1.70;;;17.40;77.60;;;;;;5012227;28;20042;-61
2023/04/20 01:32:05;;;;;;;4.80;1.70;;;;;;;;;;5008115;28;20038;-62
2023/04/20 01:34:31;;;;;;;4.15;1.75;;;16.90;77.30;;;;;;5012588;28;20089;-64
2023/04/20 01:36:57;;;;;;;3.92;1.75;;;17.30;77.50;;;;;;5009863;28;20078;-62
2023/04/20 01:39:23;;;;;;;5.82;1.83;;;17.40;77.60;;;;;;5011340;28;20054;-61
2023/04/20 01:41:49;;;;;;;3.53;1.70;;;17.10;74.50;;;;;;5010342;28;20034;-67
2023/04/20 01:44:15;;;;;;;3.95;1.70;;;;;;;;;;5003690;28;20141;-67
2023/04/20 01:46:41;;;;;;;3.80;1.52;;;17.00;77.30;;;;;;5012139;28;20045;-62
2023/04/20 01:49:07;;;;;;;3.88;1.90;;;17.00;77.50;;;;;;5008280;28;20046;-63
2023/04/20 01:51:33;;;;;;;4.95;1.73;;;17.00;77.30;;;;;;5009214;28;20084;-61
2023/04/20 01:53:59;;;;;;;4.57;1.77;;;16.90;77.50;;;;;;5010441;28;20472;-62
2023/04/20 01:56:26;;;;;;;3.80;1.80;;;;;;;;;;5010490;28;20042;-65
2023/04/20 01:58:51;;;;;;;4.20;1.85;;;17.20;77.60;;;;;;5008694;28;20480;-66
2023/04/20 02:01:17;;;;;;;5.82;1.70;;;;;;;;;;5002832;28;20041;-65
2023/04/20 02:03:44;;;;;;;3.85;1.92;;;;;;;;;;5008368;28;20042;-66
2023/04/20 02:06:09;;;;;;;2.83;1.40;;;17.00;74.50;;;;;;5012503;28;20054;-67
2023/04/20 02:08:36;;;;;;;5.70;1.80;;;;;;;;;;5014597;28;20044;-67
2023/04/20 02:11:01;;;;;;;4.90;1.70;;;16.90;75.20;;;;;;5014527;28;20057;-62
2023/04/20 02:13:27;;;;;;;4.15;1.80;;;16.70;77.60;;;;;;5001760;28;20417;-62
2023/04/20 02:15:53;;;;;;;4.43;1.90;;;16.70;77.60;;;;;;5014723;28;20456;-62
2023/04/20 02:18:19;;;;;;;5.63;2.20;;;16.90;77.70;;;;;;5009616;28;20053;-62
2023/04/20 02:20:44;;;;;;;4.05;1.77;;;16.90;77.70;;;;;;5009447;28;20136;-61
2023/04/20 02:23:10;;;;;;;3.00;1.55;;;17.00;76.30;;;;;;5007029;28;20052;-61
2023/04/20 02:25:37;;;;;;;6.10;1.95;;;;;;;;;;5011921;28;20056;-61
2023/04/20 02:28:03;;;;;;;4.35;1.85;;;16.90;77.60;;;;;;5011329;28;20053;-60
2023/04/20 02:30:28;;;;;;;5.10;2.08;;;16.90;77.80;;;;;;4996781;28;20395;-61
2023/04/20 02:32:54;;;;;;;3.97;1.90;;;16.70;77.20;;;;;;5010030;28;20038;-66
2023/04/20 02:35:20;;;;;;;3.70;1.75;;;16.70;73.90;;;;;;5004808;28;20070;-66
2023/04/20 02:37:46;;;;;;;3.97;1.83;;;16.90;76.60;;;;;;5014985;28;20397;-66
2023/04/20 02:40:12;;;;;;;4.05;1.90;;;;;;;;;;5014020;28;20048;-62
2023/04/20 02:42:38;;;;;;;6.32;1.83;;;16.80;75.20;;;;;;5013324;28;20044;-62
2023/04/20 02:45:05;;;;;;;6.38;2.10;;;;;;;;;;5011555;28;20399;-61
2023/04/20 02:47:30;;;;;;;9.23;1.95;;;16.50;77.50;;;;;;5012163;28;20046;-62
2023/04/20 02:49:57;;;;;;;5.32;1.63;;;;;;;;;;5013109;28;20108;-63
2023/04/20 02:52:23;;;;;;;4.78;2.17;;;;;;;;;;5004856;28;20057;-64
2023/04/20 02:54:49;;;;;;;4.50;2.13;;;;;;;;;;5009354;28;20103;-65
2023/04/20 02:57:15;;;;;;;4.82;1.90;;;16.70;77.40;;;;;;5010404;28;20099;-66
2023/04/20 02:59:40;;;;;;;3.35;1.65;;;16.80;77.50;;;;;;5013154;28;20034;-66
2023/04/20 03:02:06;;;;;;;4.22;1.83;;;16.70;77.40;;;;;;5012663;28;20053;-66
2023/04/20 03:04:32;;;;;;;5.22;2.03;;;16.50;77.20;;;;;;5011245;28;20050;-67
2023/04/20 03:06:59;;;;;;;4.45;1.90;;;;;;;;;;5013241;28;20480;-66
2023/04/20 03:09:25;;;;;;;4.90;1.85;;;16.80;77.30;;;;;;5005572;28;20057;-67
2023/04/20 03:11:53;;;;;;;4.65;1.92;;;;;;;;;;5012685;28;20042;-66
2023/04/20 03:14:19;;;;;;;4.80;2.10;;;16.50;76.40;;;;;;5009911;28;20061;-67
2023/04/20 03:16:45;;;;;;;4.05;2.15;;;16.60;77.10;;;;;;5012333;28;20049;-67
2023/04/20 03:19:11;;;;;;;3.85;1.85;;;16.60;77.00;;;;;;5013477;28;20156;-60
2023/04/20 03:21:36;;;;;;;5.20;2.10;;;16.60;75.60;;;;;;5012910;28;20503;-60
2023/04/20 03:24:03;;;;;;;6.38;2.20;;;;;;;;;;5004212;28;20034;-65
2023/04/20 03:26:28;;;;;;;5.75;1.90;;;16.60;76.80;;;;;;4998959;28;20515;-67
2023/04/20 03:28:54;;;;;;;5.03;1.90;;;;;;;;;;5006568;28;20073;-67
2023/04/20 03:31:21;;;;;;;5.75;2.17;;;;;;;;;;5013114;28;20129;-64
2023/04/20 03:33:46;;;;;;;3.63;1.70;;;16.30;74.40;;;;;;5012367;28;20116;-61
2023/04/20 03:36:12;;;;;;;4.57;1.80;;;16.70;76.80;;;;;;5007882;28;20517;-61
2023/04/20 03:38:38;;;;;;;3.75;1.90;;;16.70;74.80;;;;;;5012196;28;20396;-61
2023/04/20 03:41:04;;;;;;;4.45;1.85;;;16.50;76.70;;;;;;5013059;28;20147;-60
2023/04/20 03:43:31;;;;;;;4.82;2.00;;;;;;;;;;5011134;28;20485;-62
2023/04/20 03:45:57;;;;;;;3.70;1.73;;;;;;;;;;5011087;28;20041;-62
2023/04/20 03:48:22;;;;;;;11.07;2.55;;;16.50;76.70;;;;;;5012118;28;20059;-60
2023/04/20 03:50:48;;;;;;;5.63;2.15;;;16.80;73.70;;;;;;5013013;28;20472;-61
2023/04/20 03:53:14;;;;;;;5.90;2.53;;;16.50;76.50;;;;;;5009619;28;20081;-61
2023/04/20 03:55:40;;;;;;;6.53;2.05;;;16.50;76.50;;;;;;5010228;28;20484;-66
2023/04/20 03:58:06;;;;;;;4.55;2.17;;;;;;;;;;5013048;28;20058;-67
2023/04/20 04:00:32;;;;;;;5.47;2.10;;;16.60;76.20;;;;;;5005245;28;20104;-60
2023/04/20 04:02:58;;;;;;;8.27;2.05;;;16.60;73.50;;;;;;5012785;28;20034;-61
2023/04/20 04:05:24;;;;;;;3.35;1.67;;;;;;;;;;5012893;28;20586;-60
2023/04/20 04:07:50;;;;;;;6.38;2.08;;;;;;;;;;5010514;28;20163;-61
2023/04/20 04:10:17;;;;;;;6.43;2.20;;;;;;;;;;5011193;28;20461;-63
2023/04/20 04:12:46;;;;;;;5.78;2.13;;;;;;;;;;5011400;28;20065;-62
2023/04/20 04:15:12;;;;;;;5.30;2.05;;;;;;;;;;5013632;28;20046;-60
2023/04/20 04:17:38;;;;;;;5.18;1.90;;;16.60;76.00;;;;;;5000732;28;20045;-67
2023/04/20 04:20:07;;;;;;;4.93;2.30;;;16.40;76.20;;;;;;5013143;28;20046;-67
2023/04/20 04:22:32;;;;;;;5.35;2.17;;;16.60;74.80;;;;;;5010169;28;20060;-66
2023/04/20 04:24:58;;;;;;;5.32;1.90;;;16.50;76.10;;;;;;5008705;28;20042;-67
2023/04/20 04:27:24;;;;;;;4.03;1.88;;;16.50;76.10;;;;;;5007127;28;20045;-67
2023/04/20 04:29:50;;;;;;;4.25;1.92;;;16.50;76.10;;;;;;5008323;28;20073;-67
2023/04/20 04:32:16;;;;;;;4.05;1.90;;;16.50;76.00;;;;;;5011193;28;20056;-66
2023/04/20 04:34:45;;;;;;;6.22;1.98;;;16.30;76.00;;;;;;4999070;28;20077;-60
2023/04/20 04:37:11;;;;;;;4.43;1.60;;;;;;;;;;4997388;28;20069;-61
2023/04/20 04:39:38;;;;;;;4.65;1.73;;;;;;;;;;5010538;28;20057;-61
2023/04/20 04:42:04;;;;;;;4.18;1.90;;;16.40;75.50;;;;;;5008443;28;20052;-61
2023/04/20 04:44:30;;;;;;;5.47;2.00;;;16.20;76.50;;;;;;5010446;28;20100;-61
2023/04/20 04:46:57;;;;;;;5.20;1.83;;;;;;;;;;5008808;28;20048;-61
2023/04/20 04:49:28;;;;;;;6.70;2.10;;;16.30;73.70;;;;;;4998990;28;20057;-61
2023/04/20 04:51:54;;;;;;;5.88;1.92;;;;;;;;;;4993194;28;20108;-61
2023/04/20 04:54:20;;;;;;;4.05;2.08;;;16.30;76.70;;;;;;5005911;28;20056;-67
2023/04/20 04:56:45;;;;;;;3.70;1.83;;;15.90;76.70;;;;;;5012743;28;20049;-61
2023/04/20 04:59:11;;;;;;;4.22;1.95;;;16.50;73.90;;;;;;5008692;28;20034;-61
2023/04/20 05:01:37;;;;;;;5.32;2.00;;;16.40;76.90;;;;;;5010387;28;20053;-61
2023/04/20 05:04:03;;;;;;;5.47;1.90;;;16.20;76.90;;;;;;5009038;28;20857;-61
2023/04/20 05:06:29;;;;;;;3.60;1.77;;;;;;;;;;5010582;28;20042;-62
2023/04/20 05:08:55;;;;;;;6.43;2.08;;;16.30;77.00;;;;;;5005469;28;20056;-61
2023/04/20 05:11:21;;;;;;;4.93;2.17;;;16.20;76.90;;;;;;5010980;28;20124;-61
2023/04/20 05:13:47;;;;;;;4.90;2.00;;;;;;;;;;5008747;28;20038;-63
2023/04/20 05:16:13;;;;;;;4.50;1.83;;;16.30;77.20;;;;;;5008284;28;20447;-60
2023/04/20 05:18:38;;;;;;;4.93;1.95;;;16.60;77.40;;;;;;5011471;28;20138;-62
2023/04/20 05:21:04;;;;;;;5.65;2.22;;;16.30;74.70;;;;;;5011327;28;20096;-61
2023/04/20 05:23:31;;;;;;;4.07;1.80;;;;;;;;;;5005563;28;21642;-65
2023/04/20 05:25:56;;;;;;;3.72;1.85;;;16.40;75.10;;;;;;5006508;28;20076;-66
2023/04/20 05:28:22;;;;;;;6.43;1.90;;;16.50;77.40;;;;;;5009837;28;20053;-60
2023/04/20 05:30:48;;;;;;;5.15;2.00;;;16.50;77.40;;;;;;5012317;28;20057;-61
2023/04/20 05:33:14;;;;;;;3.42;1.85;;;16.00;77.10;;;;;;5008737;28;20038;-61
2023/04/20 05:35:40;;;;;;;6.03;2.20;;;;;;;;;;5012540;28;20496;-61
2023/04/20 05:38:06;;;;;;;4.28;1.70;;;16.30;77.40;;;;;;5010749;28;21057;-61
2023/04/20 05:40:35;;;;;;;4.38;1.70;;;16.20;77.50;;;;;;5016167;28;20049;-61
2023/04/20 05:43:01;;;;;;;6.18;2.50;;;;;;;;;;5000356;28;20039;-61
2023/04/20 05:45:27;;;;;;;5.03;2.10;;;16.40;77.20;;;;;;5012563;28;20132;-62
2023/04/20 05:47:56;;;;;;;5.03;2.10;;;16.30;76.60;;;;;;5016376;28;20140;-60
2023/04/20 05:50:23;;;;;;;3.25;1.65;;;16.40;77.50;;;;;;5012781;28;20483;-62
2023/04/20 05:52:49;;;;;;;8.02;1.83;;;16.60;77.60;;;;;;5010824;28;20057;-60
2023/04/20 05:55:15;;;;;;;4.20;1.80;;;16.40;77.40;;;;;;5005275;28;20048;-61
2023/04/20 05:57:41;;;;;;;4.78;2.03;;;16.30;77.00;;;;;;5015631;28;20563;-60
2023/04/20 06:00:14;;;;;;;2.90;1.73;;;16.40;73.00;;;;;;5008580;28;20484;-61
2023/04/20 06:02:40;;;;;;;3.78;2.05;;;16.40;76.30;;;;;;5013839;28;20049;-60
2023/04/20 06:05:08;;;;;;;6.38;1.80;;;16.20;75.00;;;;;;5014264;28;20052;-61
2023/04/20 06:07:34;;;;;;;5.35;2.20;;;16.50;77.50;;;;;;5015879;28;20050;-60
2023/04/20 06:10:00;;;;;;;4.05;1.70;;;16.40;77.60;;;;;;4995171;28;20042;-61
2023/04/20 06:12:28;;;;;;;3.20;1.58;;;;;;;;;;5012292;28;20081;-61
2023/04/20 06:14:58;;;;;;;2.60;1.45;;;16.40;77.80;;;;;;5015621;28;20057;-61
2023/04/20 06:17:23;;;;;;;7.05;2.08;;;16.30;77.80;;;;;;5014123;28;20124;-60
2023/04/20 06:19:49;;;;;;;7.05;2.08;;;16.30;77.80;;;;;;5013820;28;20046;-61
2023/04/20 06:22:15;;;;;;;4.50;2.00;;;;;;;;;;5010760;28;20042;-61
2023/04/20 06:24:42;;;;;;;4.47;2.17;;;;;;;;;;5013074;28;20042;-62
2023/04/20 06:27:08;;;;;;;4.93;1.98;;;16.30;76.90;;;;;;5011949;28;20058;-60
2023/04/20 06:29:34;;;;;;;4.50;1.90;;;16.20;78.10;;;;;;5011085;28;20054;-63
2023/04/20 06:32:00;;;;;;;5.38;1.80;;;;;;;;;;5012738;28;20099;-62
2023/04/20 06:34:26;;;;;;;5.53;2.03;;;;;;;;;;5006859;28;20128;-60
2023/04/20 06:36:53;;;;;;;3.35;1.67;;;;;;;;;;5006594;28;20137;-62
2023/04/20 06:39:19;;;;;;;5.07;1.88;;;16.40;78.30;;;;;;5014000;28;20046;-65
2023/04/20 06:41:45;;;;;;;3.85;1.88;;;;;;;;;;5015294;28;20053;-65
2023/04/20 06:44:11;;;;;;;4.82;1.90;;;16.30;78.40;;;;;;5003915;28;20038;-60
2023/04/20 06:46:36;;;;;;;4.22;1.88;;;16.30;78.60;;;;;;5015253;28;20061;-60
2023/04/20 06:49:02;;;;;;;5.47;1.88;;;;;;;;;;5010291;28;20045;-65
2023/04/20 06:51:29;;;;;;;5.15;2.00;;;16.30;74.90;;;;;;4995523;28;20058;-60
2023/04/20 06:53:55;;;;;;;4.63;1.95;;;16.30;78.70;;;;;;4993928;28;20046;-61
2023/04/20 06:56:21;;;;;;;5.22;1.70;;;;;;;;;;5001831;28;20053;-61
2023/04/20 06:58:47;;;;;;;4.45;1.80;;;;;;;;;;5005537;28;20481;-62
2023/04/20 07:01:13;;;;;;;4.50;1.75;;;;;;;;;;5001836;28;20054;-62
2023/04/20 07:03:40;;;;;;;5.68;2.13;;;;;;;;;;5005336;28;20064;-61
2023/04/20 07:06:06;;;;;;;5.35;2.10;;;16.40;75.70;;;;;;5005947;28;20073;-62
2023/04/20 07:08:32;;;;;;;5.35;1.90;;;16.40;78.90;;;;;;5007060;28;20038;-62
2023/04/20 07:10:58;;;;;;;4.28;2.05;;;;;;;;;;5011307;28;20048;-66
2023/04/20 07:13:24;;;;;;;4.57;1.85;;;16.30;75.40;;;;;;5014301;28;20038;-66
2023/04/20 07:15:51;;;;;;;4.20;1.88;;;;;;;;;;5010721;28;20746;-64
2023/04/20 07:18:17;;;;;;;5.93;1.90;;;16.20;78.70;;;;;;5011553;28;20045;-61
2023/04/20 07:20:42;;;;;;;4.38;1.90;;;16.50;78.80;;;;;;5006254;28;20038;-61
2023/04/20 07:23:08;;;;;;;3.60;1.80;;;16.40;78.90;;;;;;4995447;28;20128;-62
2023/04/20 07:25:35;;;;;;;4.30;1.90;;;;;;;;;;5006860;28;20076;-61
2023/04/20 07:28:00;;;;;;;4.32;2.10;;;16.40;78.90;;;;;;5011897;28;20409;-65
2023/04/20 07:30:26;;;;;;;5.00;1.88;;;16.20;78.90;;;;;;5013501;28;20073;-60
2023/04/20 07:32:52;;;;;;;5.82;2.40;;;16.30;78.90;;;;;;5014021;28;20499;-62
2023/04/20 07:35:18;;;;;;;6.32;1.98;;;16.50;79.10;;;;;;5013194;28;20045;-61
2023/04/20 07:37:43;;;;;;;4.20;2.15;;;16.30;79.10;;;;;;5010873;28;20461;-63
2023/04/20 07:40:10;;;;;;;3.90;1.90;;;16.30;78.90;;;;;;5012954;28;20053;-61
2023/04/20 07:42:36;;;;;;;4.55;2.00;;;16.30;75.00;;;;;;5014214;28;20113;-65
2023/04/20 07:45:05;;;;;;;5.57;2.08;;;16.60;74.90;;;;;;5012697;28;20487;-63
2023/04/20 07:47:32;;;;;;;4.30;2.10;;;16.50;78.00;;;;;;5004613;28;20042;-65
2023/04/20 07:49:59;;;;;;;4.50;2.00;;;;;;;;;;4995948;28;20050;-63
2023/04/20 07:52:24;;;;;;;4.13;2.20;;;16.50;79.00;;;;;;5013928;28;20046;-63
2023/04/20 07:54:55;;;;;;;5.03;2.00;;;;;;;;;;5014094;28;20388;-61
2023/04/20 07:57:21;;;;;;;4.25;1.92;;;;;;;;;;5012639;28;21031;-62
2023/04/20 07:59:47;;;;;;;4.90;2.15;;;16.70;79.00;;;;;;4994972;28;20042;-63
2023/04/20 08:02:13;;;;;;;4.78;2.05;;;16.80;77.20;;;;;;4993263;28;20049;-62
2023/04/20 08:04:39;;;;;;;4.20;2.13;;;;;;;;;;4994239;28;20050;-60
2023/04/20 08:07:06;;;;;;;4.65;2.00;;;;;;;;;;4994204;28;20100;-61
2023/04/20 08:09:32;;;;;;;7.85;2.20;;;;;;;;;;5007423;28;20111;-65
2023/04/20 08:11:59;;;;;;;8.10;2.35;;;;;;;;;;5010631;28;20137;-61
2023/04/20 08:14:25;;;;;;;7.10;2.17;;;;;;;;;;5007922;28;20188;-64
2023/04/20 08:16:51;;;;;;;6.30;2.03;;;16.90;78.90;;;;;;5007294;28;20046;-61
2023/04/20 08:19:17;;;;;;;5.30;2.13;;;;;;;;;;5006526;28;20045;-65
2023/04/20 08:21:43;;;;;;;8.23;2.58;;;;;;;;;;5011529;28;20172;-63
2023/04/20 08:24:09;;;;;;;6.55;2.47;;;16.90;79.00;;;;;;5013459;28;20125;-63
2023/04/20 08:26:35;;;;;;;5.85;2.40;;;;;;;;;;5011381;28;20484;-61
2023/04/20 08:29:01;;;;;;;6.30;2.88;;;;;;;;;;5010459;28;20488;-60
2023/04/20 08:31:27;;;;;;;6.30;2.55;;;;;;;;;;5008781;28;20112;-60
2023/04/20 08:33:54;;;;;;;8.27;3.55;;;;;;;;;;4993502;28;20046;-60
2023/04/20 08:36:20;;;;;;;5.03;2.25;;;;;;;;;;5004958;28;20116;-60
2023/04/20 08:39:11;;;;;;;7.82;2.95;;;16.80;75.90;;;;;;5009582;28;20055;-62
2023/04/20 08:41:36;;;;;;;5.07;2.42;;;16.90;79.00;;;;;;5010674;28;20077;-60
2023/04/20 08:44:03;;;;;;;6.05;2.70;;;;;;;;;;5007850;28;20081;-61
2023/04/20 08:46:29;;;;;;;5.00;2.40;;;16.70;78.90;;;;;;4998799;28;20050;-61
2023/04/20 08:48:55;;;;;;;7.57;2.85;;;16.70;78.20;;;;;;5003547;28;20037;-60
2023/04/20 08:51:21;;;;;;;7.43;2.55;;;16.90;78.00;;;;;;5009749;28;20395;-60
2023/04/20 08:53:47;;;;;;;5.65;2.75;;;;;;;;;;5013073;28;20034;-61
2023/04/20 08:56:13;;;;;;;6.30;2.85;;;;;;;;;;5012010;28;20088;-64
2023/04/20 08:58:41;;;;;;;9.55;2.80;;;16.80;77.60;;;;;;5006152;28;20058;-64
2023/04/20 09:01:10;;;;;;;8.05;2.60;;;16.80;75.70;;;;;;5008776;28;20121;-65
2023/04/20 09:03:41;;;;;;;5.47;2.58;;;16.80;75.80;;;;;;5008009;28;20042;-60
2023/04/20 09:06:16;;;;;;;6.28;2.72;;;;;;;;;;5002689;28;20448;-60
2023/04/20 09:08:42;;;;;;;5.72;3.00;;;;;;;;;;4996347;28;20046;-60
2023/04/20 09:11:24;;;;;;;6.47;2.70;;;16.90;74.90;;;;;;4993229;28;20049;-61
2023/04/20 09:13:57;;;;;;;6.05;2.67;;;17.10;74.90;;;;;;5008242;28;20046;-60
2023/04/20 09:16:24;;;;;;;5.75;2.80;;;;;;;;;;5016819;28;20073;-60
2023/04/20 09:18:55;;;;;;;7.57;3.10;;;17.00;74.60;;;;;;5016030;28;20056;-63
2023/04/20 09:21:23;;;;;;;6.30;2.50;;;16.80;75.30;;;;;;5016404;28;20042;-63
2023/04/20 09:24:13;;;;;;;6.82;3.00;;;16.90;76.40;;;;;;5013999;28;20506;-62
2023/04/20 09:26:39;;;;;;;7.05;2.78;;;16.90;79.30;;;;;;5015464;28;20060;-60
2023/04/20 09:29:20;;;;;;;6.85;2.90;;;16.90;76.00;;;;;;5014915;28;20124;-61
2023/04/20 09:31:46;;;;;;;5.25;2.85;;;16.90;78.80;;;;;;5016298;28;20132;-60
2023/04/20 09:34:13;;;;;;;7.38;2.92;;;;;;;;;;5011545;28;20136;-62
2023/04/20 09:36:45;;;;;;;6.47;2.72;;;;;;;;;;5014750;28;20057;-60
2023/04/20 09:39:12;;;;;;;7.45;2.85;;;17.20;76.90;;;;;;5013771;28;20137;-64
2023/04/20 09:41:39;;;;;;;6.95;2.67;;;;;;;;;;5016401;28;20403;-60
2023/04/20 09:44:05;;;;;;;6.45;3.05;;;16.80;75.20;;;;;;5015167;28;20132;-61
2023/04/20 09:46:32;;;;;;;6.30;3.13;;;;;;;;;;5016142;28;20465;-64
2023/04/20 09:48:59;;;;;;;6.32;2.72;;;;;;;;;;5013429;28;20038;-69
2023/04/20 09:51:28;;;;;;;8.52;2.92;;;16.90;76.40;;;;;;5016149;28;20081;-62
2023/04/20 09:53:58;;;;;;;6.75;2.72;;;16.90;75.80;;;;;;5012422;28;20042;-60
2023/04/20 09:56:25;;;;;;;6.20;2.88;;;16.70;75.80;;;;;;5012523;28;20058;-60
2023/04/20 09:58:51;;;;;;;6.93;3.22;;;16.70;75.60;;;;;;5009192;28;20042;-62
2023/04/20 10:01:17;;;;;;;5.97;2.65;;;16.80;79.40;;;;;;5009657;28;20038;-61
2023/04/20 10:03:43;;;;;;;6.32;2.90;;;;;;;;;;5009703;28;20129;-61
2023/04/20 10:06:22;;;;;;;6.70;2.42;;;;;;;;;;5010473;28;20089;-62
2023/04/20 10:08:49;;;;;;;8.20;3.58;;;16.80;75.90;;;;;;5014826;28;20050;-60
2023/04/20 10:11:39;;;;;;;5.68;2.92;;;16.80;75.70;;;;;;5003926;28;20093;-61
2023/04/20 10:14:18;;;;;;;5.90;3.00;;;16.60;75.70;;;;;;5004972;28;20050;-60
2023/04/20 10:16:45;;;;;;;6.20;2.90;;;;;;;;;;5002219;28;20081;-62
2023/04/20 10:19:11;;;;;;;6.28;3.10;;;;;;;;;;5012999;28;20121;-65
2023/04/20 10:21:47;;;;;;;8.32;3.25;;;;;;;;;;5007093;28;20088;-67
2023/04/20 10:24:14;;;;;;;5.03;2.88;;;;;;;;;;5013406;28;20077;-62
2023/04/20 10:26:41;;;;;;;8.02;3.20;;;16.80;77.00;;;;;;4999988;28;20440;-60
2023/04/20 10:29:07;;;;;;;5.35;2.80;;;;;;;;;;5009260;28;20046;-67
2023/04/20 10:31:39;;;;;;;9.23;3.75;;;16.60;75.60;;;;;;5009202;28;20045;-62
2023/04/20 10:34:05;;;;;;;7.85;3.47;;;16.70;78.20;;;;;;5013162;28;20121;-62
2023/04/20 10:36:35;;;;;;;10.63;3.47;;;16.60;77.20;;;;;;5014551;28;20527;-61
2023/04/20 10:39:18;;;;;;;8.85;3.33;;;16.80;76.40;;;;;;5009837;28;20740;-66
2023/04/20 10:41:53;;;;;;;11.73;3.60;;;;;;;;;;5000492;28;20050;-63
2023/04/20 10:44:20;;;;;;;8.35;3.58;;;16.60;80.60;;;;;;5014956;28;20415;-62
2023/04/20 10:46:53;;;;;;;6.13;3.50;;;16.40;77.30;;;;;;5015304;28;20439;-62
2023/04/20 10:49:19;;;;;;;7.53;3.55;;;;;;;;;;4998852;28;20056;-63
2023/04/20 10:51:48;;;;;;;8.05;3.78;;;;;;;;;;5013030;28;20038;-62
2023/04/20 10:54:14;;;;;;;7.00;3.38;;;16.70;80.80;;;;;;5013714;28;20077;-62
2023/04/20 10:56:44;;;;;;;7.63;3.50;;;16.40;77.60;;;;;;5014861;28;20147;-62
2023/04/20 10:59:17;;;;;;;7.47;3.40;;;16.60;77.80;;;;;;5000427;28;20042;-62
2023/04/20 11:01:43;;;;;;;8.05;4.10;;;16.50;79.20;;;;;;5012136;28;20050;-62
2023/04/20 11:04:09;;;;;;;8.48;3.38;;;16.50;80.90;;;;;;5012394;28;20144;-61
2023/04/20 11:06:39;;;;;;;7.60;3.63;;;16.40;80.80;;;;;;4995332;28;20050;-62
2023/04/20 11:09:17;;;;;;;6.63;3.65;;;;;;;;;;5011673;28;20520;-62
2023/04/20 11:11:43;;;;;;;6.43;3.47;;;16.40;80.00;;;;;;5013423;28;20046;-63
2023/04/20 11:14:10;;;;;;;6.03;3.38;;;;;;;;;;5009516;28;20132;-63
2023/04/20 11:16:36;;;;;;;8.07;3.97;;;16.20;77.80;;;;;;4998572;28;20132;-63
2023/04/20 11:19:02;;;;;;;8.75;3.78;;;16.40;77.20;;;;;;5013383;28;20534;-61
2023/04/20 11:21:39;;;;;;;7.15;3.80;;;16.60;78.50;;;;;;5008079;28;20056;-61
2023/04/20 11:24:05;;;;;;;7.82;3.97;;;16.50;81.40;;;;;;5000031;28;20050;-62
2023/04/20 11:26:39;;;;;;;7.75;3.72;;;16.60;77.00;;;;;;5012816;28;20050;-61
2023/04/20 11:29:05;;;;;;;8.07;3.72;;;16.40;81.40;;;;;;5014259;28;20786;-63
2023/04/20 11:31:31;;;;;;;6.80;3.90;;;;;;;;;;5011540;28;20046;-63
2023/04/20 11:33:57;;;;;;;7.38;3.80;;;;;;;;;;5012213;28;20069;-63
2023/04/20 11:36:25;;;;;;;8.15;3.80;;;16.50;80.50;;;;;;5003509;28;20387;-62
2023/04/20 11:38:51;;;;;;;9.88;4.00;;;;;;;;;;5006071;28;20508;-64
2023/04/20 11:41:17;;;;;;;8.45;4.10;;;16.80;81.30;;;;;;5012405;28;20471;-62
2023/04/20 11:43:44;;;;;;;8.68;4.35;;;16.80;81.30;;;;;;5013126;28;20113;-61
2023/04/20 11:46:18;;;;;;;8.82;4.40;;;16.90;78.40;;;;;;5009071;28;20045;-66
2023/04/20 11:48:44;;;;;;;8.45;4.07;;;17.10;81.00;;;;;;5009180;28;20125;-65
2023/04/20 11:51:10;;;;;;;10.90;4.45;;;;;;;;;;5004986;28;20052;-65
2023/04/20 11:53:37;;;;;;;13.55;4.70;;;;;;;;;;5013503;28;20049;-66
2023/04/20 11:56:03;;;;;;;9.48;4.30;;;;;;;;;;5012398;28;20038;-65
2023/04/20 11:58:29;;;;;;;8.13;4.22;;;;;;;;;;5012293;28;20060;-65
2023/04/20 12:00:55;;;;;;;8.27;3.97;;;16.80;80.30;;;;;;5012010;28;20049;-66
2023/04/20 12:03:22;;;;;;;7.50;4.47;;;;;;;;;;5010427;28;20045;-66
2023/04/20 12:05:47;;;;;;;8.65;4.28;;;16.80;81.20;;;;;;5008263;28;20085;-66
2023/04/20 12:08:16;;;;;;;6.93;4.10;;;;;;;;;;5025337;28;20080;-61
2023/04/20 12:10:42;;;;;;;8.80;4.10;;;;;;;;;;4997229;28;20077;-64
2023/04/20 12:13:08;;;;;;;8.35;4.18;;;;;;;;;;5002646;28;20091;-62
2023/04/20 12:15:34;;;;;;;7.65;3.85;;;17.00;81.30;;;;;;5010514;28;20038;-65
2023/04/20 12:17:59;;;;;;;7.10;4.00;;;16.90;78.40;;;;;;5001134;28;20054;-65
2023/04/20 12:20:26;;;;;;;10.20;5.05;;;;;;;;;;5002714;28;20053;-65
2023/04/20 12:22:52;;;;;;;7.55;4.00;;;;;;;;;;5013053;28;20073;-65
2023/04/20 12:25:18;;;;;;;7.95;4.80;;;;;;;;;;5009496;28;20046;-68
2023/04/20 12:27:44;;;;;;;10.02;4.38;;;16.90;82.20;;;;;;5012715;28;20046;-64
2023/04/20 12:30:10;;;;;;;7.90;4.40;;;17.20;82.50;;;;;;5008130;28;20056;-64
2023/04/20 12:32:36;;;;;;;8.68;4.15;;;;;;;;;;5010682;28;20052;-64
2023/04/20 12:35:02;;;;;;;9.27;4.88;;;17.40;82.60;;;;;;5004652;28;20042;-65
2023/04/20 12:37:29;;;;;;;8.45;4.05;;;;;;;;;;5014938;28;20435;-66
2023/04/20 12:39:56;;;;;;;8.23;4.13;;;;;;;;;;5012634;28;20042;-64
2023/04/20 12:42:22;;;;;;;7.65;4.80;;;17.50;82.50;;;;;;5027435;28;20076;-66
2023/04/20 12:44:48;;;;;;;9.00;4.32;;;;;;;;;;5016959;28;20038;-64
2023/04/20 12:47:14;;;;;;;9.10;3.92;;;;;;;;;;4999470;28;20050;-63
2023/04/20 12:49:40;;;;;;;9.73;4.60;;;17.40;82.10;;;;;;4995480;28;20042;-65
2023/04/20 12:52:06;;;;;;;8.85;5.03;;;17.40;82.20;;;;;;5011178;28;20096;-65
2023/04/20 12:54:32;;;;;;;7.68;4.30;;;;;;;;;;5012257;28;20038;-67
2023/04/20 12:56:58;;;;;;;9.25;4.57;;;17.40;82.10;;;;;;5011938;28;20045;-67
2023/04/20 12:59:24;;;;;;;8.57;4.50;;;;;;;;;;5012054;28;20056;-66
2023/04/20 13:01:50;;;;;;;8.18;4.95;;;17.40;81.90;;;;;;5009078;28;20107;-66
2023/04/20 13:04:16;;;;;;;6.97;4.38;;;17.40;81.80;;;;;;5004115;28;20042;-66
2023/04/20 13:06:42;;;;;;;13.32;4.90;;;;;;;;;;5003076;28;20114;-66
2023/04/20 13:09:08;;;;;;;8.18;4.70;;;;;;;;;;5010988;28;20045;-66
2023/04/20 13:11:35;;;;;;;9.02;4.93;;;;;;;;;;5011609;28;20120;-66
2023/04/20 13:14:03;;;;;;;8.25;4.88;;;;;;;;;;5011364;28;20384;-65
2023/04/20 13:16:31;;;;;;;10.32;5.32;;;;;;;;;;5009662;28;20052;-65
2023/04/20 13:18:58;;;;;;;10.38;5.13;;;17.20;79.20;;;;;;5011553;28;20042;-66
2023/04/20 13:21:25;;;;;;;8.20;5.38;;;17.30;81.40;;;;;;5001602;28;20049;-66
2023/04/20 13:23:51;;;;;;;8.10;4.60;;;17.50;79.50;;;;;;5012403;28;20121;-65
2023/04/20 13:26:18;;;;;;;7.50;4.80;;;17.50;81.40;;;;;;5010492;28;20045;-66